sensor_id;sensor_type;location;lat;lon;timestamp;pressure;altitude;pressure_sealevel;temperature;humidity
22580;BME280;11456;47.030;15.396;2022-09-09T00:00:32;97452.34;;;15.51;89.73
22580;BME280;11456;47.030;15.396;2022-09-09T00:03:06;97457.31;;;15.62;89.42
22580;BME280;11456;47.030;15.396;2022-09-09T00:05:59;97466.19;;;15.71;88.61
22580;BME280;11456;47.030;15.396;2022-09-09T00:08:46;97461.53;;;15.65;88.11
22580;BME280;11456;47.030;15.396;2022-09-09T00:11:16;97461.72;;;15.49;89.27
22580;BME280;11456;47.030;15.396;2022-09-09T00:13:48;97460.28;;;15.38;90.20
22580;BME280;11456;47.030;15.396;2022-09-09T00:16:19;97471.25;;;15.45;90.21
22580;BME280;11456;47.030;15.396;2022-09-09T00:19:00;97468.47;;;15.53;89.54
22580;BME280;11456;47.030;15.396;2022-09-09T00:21:33;97465.81;;;15.45;90.19
22580;BME280;11456;47.030;15.396;2022-09-09T00:24:00;97476.66;;;15.15;92.60
22580;BME280;11456;47.030;15.396;2022-09-09T00:31:34;97473.13;;;15.30;90.88
22580;BME280;11456;47.030;15.396;2022-09-09T00:34:19;97475.91;;;15.21;90.85
22580;BME280;11456;47.030;15.396;2022-09-09T00:36:48;97462.19;;;15.67;89.01
22580;BME280;11456;47.030;15.396;2022-09-09T00:39:38;97469.19;;;15.47;90.19
22580;BME280;11456;47.030;15.396;2022-09-09T00:42:13;97468.81;;;15.20;91.33
22580;BME280;11456;47.030;15.396;2022-09-09T00:44:59;97463.53;;;15.04;93.31
22580;BME280;11456;47.030;15.396;2022-09-09T00:47:38;97460.19;;;15.02;92.88
22580;BME280;11456;47.030;15.396;2022-09-09T00:50:28;97464.00;;;14.93;93.54
22580;BME280;11456;47.030;15.396;2022-09-09T00:53:08;97461.75;;;15.11;91.99
22580;BME280;11456;47.030;15.396;2022-09-09T00:55:47;97460.19;;;15.32;91.63
22580;BME280;11456;47.030;15.396;2022-09-09T00:58:14;97469.91;;;15.11;91.51
22580;BME280;11456;47.030;15.396;2022-09-09T01:00:46;97464.59;;;15.03;92.48
22580;BME280;11456;47.030;15.396;2022-09-09T01:03:21;97465.22;;;15.05;92.22
22580;BME280;11456;47.030;15.396;2022-09-09T01:05:57;97463.38;;;15.20;91.80
22580;BME280;11456;47.030;15.396;2022-09-09T01:10:54;97460.19;;;15.32;90.86
22580;BME280;11456;47.030;15.396;2022-09-09T01:13:28;97464.88;;;15.08;92.89
22580;BME280;11456;47.030;15.396;2022-09-09T01:15:59;97460.63;;;14.91;93.29
22580;BME280;11456;47.030;15.396;2022-09-09T01:18:31;97467.94;;;14.91;93.40
22580;BME280;11456;47.030;15.396;2022-09-09T01:21:08;97467.31;;;15.33;91.81
22580;BME280;11456;47.030;15.396;2022-09-09T01:24:04;97468.63;;;15.22;92.61
22580;BME280;11456;47.030;15.396;2022-09-09T01:26:35;97464.66;;;14.95;93.76
22580;BME280;11456;47.030;15.396;2022-09-09T01:29:14;97475.28;;;14.82;94.29
22580;BME280;11456;47.030;15.396;2022-09-09T01:31:51;97480.88;;;14.80;95.36
22580;BME280;11456;47.030;15.396;2022-09-09T01:34:19;97480.44;;;14.92;94.44
22580;BME280;11456;47.030;15.396;2022-09-09T01:37:01;97483.34;;;14.90;94.42
22580;BME280;11456;47.030;15.396;2022-09-09T01:39:28;97483.53;;;15.70;89.96
22580;BME280;11456;47.030;15.396;2022-09-09T01:41:59;97473.13;;;15.30;91.50
22580;BME280;11456;47.030;15.396;2022-09-09T01:44:27;97477.59;;;15.22;93.39
22580;BME280;11456;47.030;15.396;2022-09-09T01:46:54;97470.50;;;15.21;93.64
22580;BME280;11456;47.030;15.396;2022-09-09T01:49:21;97468.78;;;14.91;94.81
22580;BME280;11456;47.030;15.396;2022-09-09T01:51:49;97474.03;;;14.70;97.05
22580;BME280;11456;47.030;15.396;2022-09-09T01:54:17;97479.41;;;14.78;96.06
22580;BME280;11456;47.030;15.396;2022-09-09T02:06:47;97464.50;;;14.59;98.37
22580;BME280;11456;47.030;15.396;2022-09-09T02:09:24;97469.78;;;14.53;99.06
22580;BME280;11456;47.030;15.396;2022-09-09T02:11:54;97465.97;;;14.62;98.71
22580;BME280;11456;47.030;15.396;2022-09-09T02:14:39;97476.75;;;14.70;97.82
22580;BME280;11456;47.030;15.396;2022-09-09T02:17:09;97469.91;;;14.59;99.11
22580;BME280;11456;47.030;15.396;2022-09-09T02:20:10;97473.69;;;14.50;100.00
22580;BME280;11456;47.030;15.396;2022-09-09T02:22:44;97473.75;;;14.65;99.15
22580;BME280;11456;47.030;15.396;2022-09-09T02:25:15;97468.34;;;14.79;98.32
22580;BME280;11456;47.030;15.396;2022-09-09T02:27:43;97475.91;;;14.69;98.75
22580;BME280;11456;47.030;15.396;2022-09-09T02:30:12;97487.09;;;14.66;98.62
22580;BME280;11456;47.030;15.396;2022-09-09T02:32:44;97483.34;;;14.53;100.00
22580;BME280;11456;47.030;15.396;2022-09-09T02:35:15;97482.13;;;14.78;99.00
22580;BME280;11456;47.030;15.396;2022-09-09T02:37:42;97488.06;;;14.73;99.57
22580;BME280;11456;47.030;15.396;2022-09-09T02:40:13;97492.00;;;14.71;99.67
22580;BME280;11456;47.030;15.396;2022-09-09T02:42:46;97492.28;;;14.76;100.00
22580;BME280;11456;47.030;15.396;2022-09-09T02:45:14;97488.44;;;14.70;100.00
22580;BME280;11456;47.030;15.396;2022-09-09T02:50:20;97505.41;;;14.87;100.00
22580;BME280;11456;47.030;15.396;2022-09-09T02:58:01;97507.41;;;15.60;99.59
22580;BME280;11456;47.030;15.396;2022-09-09T03:00:31;97512.78;;;15.31;100.00
22580;BME280;11456;47.030;15.396;2022-09-09T03:03:01;97516.53;;;15.30;100.00
22580;BME280;11456;47.030;15.396;2022-09-09T03:05:28;97515.59;;;15.52;100.00
22580;BME280;11456;47.030;15.396;2022-09-09T03:07:55;97505.81;;;15.66;100.00
22580;BME280;11456;47.030;15.396;2022-09-09T03:10:21;97496.91;;;15.57;100.00
22580;BME280;11456;47.030;15.396;2022-09-09T03:12:47;97507.34;;;15.31;100.00
22580;BME280;11456;47.030;15.396;2022-09-09T03:15:15;97499.50;;;15.36;100.00
22580;BME280;11456;47.030;15.396;2022-09-09T03:17:42;97506.31;;;15.32;100.00
22580;BME280;11456;47.030;15.396;2022-09-09T03:20:08;97494.00;;;15.29;100.00
22580;BME280;11456;47.030;15.396;2022-09-09T03:22:36;97483.69;;;15.39;100.00
22580;BME280;11456;47.030;15.396;2022-09-09T03:25:03;97487.16;;;15.48;100.00
22580;BME280;11456;47.030;15.396;2022-09-09T03:27:30;97476.75;;;15.51;100.00
22580;BME280;11456;47.030;15.396;2022-09-09T03:29:57;97481.97;;;15.61;100.00
22580;BME280;11456;47.030;15.396;2022-09-09T03:32:24;97492.81;;;15.61;99.63
22580;BME280;11456;47.030;15.396;2022-09-09T03:34:54;97504.19;;;15.42;100.00
22580;BME280;11456;47.030;15.396;2022-09-09T03:37:20;97506.09;;;15.56;100.00
22580;BME280;11456;47.030;15.396;2022-09-09T03:39:48;97502.50;;;15.41;100.00
22580;BME280;11456;47.030;15.396;2022-09-09T03:42:17;97496.50;;;15.31;100.00
22580;BME280;11456;47.030;15.396;2022-09-09T03:44:50;97499.88;;;15.33;100.00
22580;BME280;11456;47.030;15.396;2022-09-09T03:47:20;97501.25;;;15.14;100.00
22580;BME280;11456;47.030;15.396;2022-09-09T03:49:50;97502.38;;;15.19;100.00
22580;BME280;11456;47.030;15.396;2022-09-09T03:52:16;97508.09;;;15.24;100.00
22580;BME280;11456;47.030;15.396;2022-09-09T03:54:50;97511.66;;;15.10;100.00
22580;BME280;11456;47.030;15.396;2022-09-09T03:57:18;97507.06;;;15.25;100.00
22580;BME280;11456;47.030;15.396;2022-09-09T03:59:44;97513.31;;;15.11;100.00
22580;BME280;11456;47.030;15.396;2022-09-09T04:02:11;97509.63;;;14.90;100.00
22580;BME280;11456;47.030;15.396;2022-09-09T04:04:38;97510.09;;;14.93;100.00
22580;BME280;11456;47.030;15.396;2022-09-09T04:07:04;97503.34;;;14.89;100.00
22580;BME280;11456;47.030;15.396;2022-09-09T04:09:33;97509.88;;;14.80;100.00
22580;BME280;11456;47.030;15.396;2022-09-09T04:12:01;97506.91;;;14.67;100.00
22580;BME280;11456;47.030;15.396;2022-09-09T04:14:28;97506.50;;;14.78;100.00
22580;BME280;11456;47.030;15.396;2022-09-09T04:16:56;97502.25;;;14.98;100.00
22580;BME280;11456;47.030;15.396;2022-09-09T04:19:24;97507.88;;;15.11;100.00
22580;BME280;11456;47.030;15.396;2022-09-09T04:21:51;97503.84;;;15.07;100.00
22580;BME280;11456;47.030;15.396;2022-09-09T04:24:20;97511.13;;;15.30;100.00
22580;BME280;11456;47.030;15.396;2022-09-09T04:26:48;97503.56;;;15.02;100.00
22580;BME280;11456;47.030;15.396;2022-09-09T04:29:15;97504.66;;;14.93;100.00
22580;BME280;11456;47.030;15.396;2022-09-09T04:31:42;97500.03;;;14.79;100.00
22580;BME280;11456;47.030;15.396;2022-09-09T04:34:09;97501.56;;;14.81;100.00
22580;BME280;11456;47.030;15.396;2022-09-09T04:36:36;97508.41;;;14.92;100.00
22580;BME280;11456;47.030;15.396;2022-09-09T04:39:04;97495.16;;;14.97;100.00
22580;BME280;11456;47.030;15.396;2022-09-09T04:41:31;97495.16;;;14.97;100.00
22580;BME280;11456;47.030;15.396;2022-09-09T04:43:58;97492.75;;;14.79;100.00
22580;BME280;11456;47.030;15.396;2022-09-09T04:46:26;97485.03;;;14.91;100.00
22580;BME280;11456;47.030;15.396;2022-09-09T04:48:53;97489.06;;;14.95;100.00
22580;BME280;11456;47.030;15.396;2022-09-09T04:51:21;97483.91;;;15.00;100.00
22580;BME280;11456;47.030;15.396;2022-09-09T04:53:50;97493.28;;;15.12;100.00
22580;BME280;11456;47.030;15.396;2022-09-09T04:56:18;97489.09;;;15.24;100.00
22580;BME280;11456;47.030;15.396;2022-09-09T04:58:51;97492.59;;;15.48;100.00
22580;BME280;11456;47.030;15.396;2022-09-09T05:01:21;97488.13;;;15.55;97.83
22580;BME280;11456;47.030;15.396;2022-09-09T05:03:53;97500.41;;;15.13;100.00
22580;BME280;11456;47.030;15.396;2022-09-09T05:06:21;97492.94;;;15.15;100.00
22580;BME280;11456;47.030;15.396;2022-09-09T05:08:52;97488.47;;;15.22;100.00
22580;BME280;11456;47.030;15.396;2022-09-09T05:11:27;97497.06;;;15.41;99.88
22580;BME280;11456;47.030;15.396;2022-09-09T05:13:59;97490.63;;;15.42;99.68
22580;BME280;11456;47.030;15.396;2022-09-09T05:16:28;97488.94;;;15.41;100.00
22580;BME280;11456;47.030;15.396;2022-09-09T05:18:55;97479.78;;;15.56;100.00
22580;BME280;11456;47.030;15.396;2022-09-09T05:21:22;97473.69;;;15.40;99.03
22580;BME280;11456;47.030;15.396;2022-09-09T05:23:49;97477.16;;;15.48;98.73
22580;BME280;11456;47.030;15.396;2022-09-09T05:26:19;97478.94;;;15.56;99.48
22580;BME280;11456;47.030;15.396;2022-09-09T05:28:48;97484.47;;;15.62;100.00
22580;BME280;11456;47.030;15.396;2022-09-09T05:31:15;97492.41;;;15.93;97.72
22580;BME280;11456;47.030;15.396;2022-09-09T05:33:44;97495.66;;;16.03;96.33
22580;BME280;11456;47.030;15.396;2022-09-09T05:36:13;97486.56;;;16.11;95.34
22580;BME280;11456;47.030;15.396;2022-09-09T05:38:41;97483.50;;;15.99;97.46
22580;BME280;11456;47.030;15.396;2022-09-09T05:41:08;97474.72;;;16.40;94.83
22580;BME280;11456;47.030;15.396;2022-09-09T05:43:35;97480.09;;;16.12;95.69
22580;BME280;11456;47.030;15.396;2022-09-09T05:46:10;97492.88;;;16.54;94.99
22580;BME280;11456;47.030;15.396;2022-09-09T05:48:38;97492.22;;;16.52;94.13
22580;BME280;11456;47.030;15.396;2022-09-09T05:51:07;97493.69;;;16.69;94.20
22580;BME280;11456;47.030;15.396;2022-09-09T05:53:34;97498.84;;;17.07;91.77
22580;BME280;11456;47.030;15.396;2022-09-09T05:56:02;97497.41;;;17.73;87.34
22580;BME280;11456;47.030;15.396;2022-09-09T05:58:32;97497.44;;;17.80;87.31
22580;BME280;11456;47.030;15.396;2022-09-09T06:01:06;97500.75;;;17.69;84.85
22580;BME280;11456;47.030;15.396;2022-09-09T06:03:39;97510.25;;;17.51;84.18
22580;BME280;11456;47.030;15.396;2022-09-09T06:06:07;97500.56;;;17.42;84.70
22580;BME280;11456;47.030;15.396;2022-09-09T06:08:34;97506.84;;;17.43;85.78
22580;BME280;11456;47.030;15.396;2022-09-09T06:11:05;97501.34;;;17.36;86.11
22580;BME280;11456;47.030;15.396;2022-09-09T06:13:32;97503.50;;;17.41;85.37
22580;BME280;11456;47.030;15.396;2022-09-09T06:15:59;97502.00;;;17.38;86.49
22580;BME280;11456;47.030;15.396;2022-09-09T06:18:26;97500.16;;;17.45;86.50
22580;BME280;11456;47.030;15.396;2022-09-09T06:21:00;97495.31;;;17.13;87.19
22580;BME280;11456;47.030;15.396;2022-09-09T06:23:27;97500.56;;;18.11;83.23
22580;BME280;11456;47.030;15.396;2022-09-09T06:26:09;97503.84;;;17.31;87.02
22580;BME280;11456;47.030;15.396;2022-09-09T06:28:36;97498.91;;;17.48;85.26
22580;BME280;11456;47.030;15.396;2022-09-09T06:31:04;97491.47;;;17.97;82.79
22580;BME280;11456;47.030;15.396;2022-09-09T06:33:35;97493.22;;;17.71;83.27
22580;BME280;11456;47.030;15.396;2022-09-09T06:36:05;97503.63;;;17.33;85.38
22580;BME280;11456;47.030;15.396;2022-09-09T06:38:32;97499.75;;;17.48;83.87
22580;BME280;11456;47.030;15.396;2022-09-09T06:40:59;97503.38;;;17.90;82.08
22580;BME280;11456;47.030;15.396;2022-09-09T06:43:27;97503.97;;;18.26;77.90
22580;BME280;11456;47.030;15.396;2022-09-09T06:45:58;97507.31;;;17.81;79.49
22580;BME280;11456;47.030;15.396;2022-09-09T06:48:26;97520.31;;;17.79;79.80
22580;BME280;11456;47.030;15.396;2022-09-09T06:53:33;97507.25;;;17.40;79.56
22580;BME280;11456;47.030;15.396;2022-09-09T06:56:00;97507.25;;;17.40;81.41
22580;BME280;11456;47.030;15.396;2022-09-09T06:58:29;97505.91;;;17.29;81.29
22580;BME280;11456;47.030;15.396;2022-09-09T07:01:07;97515.50;;;17.25;82.40
22580;BME280;11456;47.030;15.396;2022-09-09T07:03:34;97512.19;;;17.30;83.75
22580;BME280;11456;47.030;15.396;2022-09-09T07:06:01;97510.22;;;17.45;81.57
22580;BME280;11456;47.030;15.396;2022-09-09T07:08:28;97512.66;;;17.33;83.20
22580;BME280;11456;47.030;15.396;2022-09-09T07:10:55;97517.34;;;17.46;83.51
22580;BME280;11456;47.030;15.396;2022-09-09T07:13:27;97514.81;;;17.72;82.72
22580;BME280;11456;47.030;15.396;2022-09-09T07:15:55;97510.66;;;17.48;82.77
22580;BME280;11456;47.030;15.396;2022-09-09T07:18:21;97506.78;;;17.36;82.93
22580;BME280;11456;47.030;15.396;2022-09-09T07:20:54;97513.63;;;17.53;82.73
22580;BME280;11456;47.030;15.396;2022-09-09T07:23:24;97508.66;;;17.91;81.91
22580;BME280;11456;47.030;15.396;2022-09-09T07:25:51;97510.84;;;18.16;81.09
22580;BME280;11456;47.030;15.396;2022-09-09T07:28:19;97511.06;;;18.81;76.08
22580;BME280;11456;47.030;15.396;2022-09-09T07:30:53;97514.22;;;18.24;76.85
22580;BME280;11456;47.030;15.396;2022-09-09T07:33:20;97510.81;;;18.09;79.75
22580;BME280;11456;47.030;15.396;2022-09-09T07:35:46;97519.19;;;18.08;78.73
22580;BME280;11456;47.030;15.396;2022-09-09T07:38:13;97511.88;;;18.69;76.68
22580;BME280;11456;47.030;15.396;2022-09-09T07:40:39;97520.78;;;18.36;78.91
22580;BME280;11456;47.030;15.396;2022-09-09T07:43:06;97521.06;;;18.07;79.96
22580;BME280;11456;47.030;15.396;2022-09-09T07:45:35;97523.59;;;18.09;80.67
22580;BME280;11456;47.030;15.396;2022-09-09T07:48:02;97505.28;;;18.37;79.65
22580;BME280;11456;47.030;15.396;2022-09-09T07:50:29;97525.13;;;18.24;79.73
22580;BME280;11456;47.030;15.396;2022-09-09T07:52:56;97528.09;;;17.88;82.27
22580;BME280;11456;47.030;15.396;2022-09-09T07:55:23;97519.50;;;18.32;80.71
22580;BME280;11456;47.030;15.396;2022-09-09T07:57:55;97521.00;;;18.41;81.58
22580;BME280;11456;47.030;15.396;2022-09-09T08:00:22;97522.19;;;18.80;78.93
22580;BME280;11456;47.030;15.396;2022-09-09T08:02:53;97535.25;;;18.43;80.76
22580;BME280;11456;47.030;15.396;2022-09-09T08:05:21;97535.75;;;18.06;82.47
22580;BME280;11456;47.030;15.396;2022-09-09T08:07:48;97534.47;;;18.02;82.85
22580;BME280;11456;47.030;15.396;2022-09-09T08:10:15;97530.00;;;18.35;80.75
22580;BME280;11456;47.030;15.396;2022-09-09T08:12:45;97528.34;;;18.41;81.71
22580;BME280;11456;47.030;15.396;2022-09-09T08:15:32;97534.81;;;19.34;78.37
22580;BME280;11456;47.030;15.396;2022-09-09T08:17:58;97525.97;;;18.92;76.73
22580;BME280;11456;47.030;15.396;2022-09-09T08:20:25;97525.53;;;18.69;80.20
22580;BME280;11456;47.030;15.396;2022-09-09T08:22:52;97529.75;;;18.98;80.52
22580;BME280;11456;47.030;15.396;2022-09-09T08:25:18;97539.00;;;19.03;79.08
22580;BME280;11456;47.030;15.396;2022-09-09T08:27:45;97532.50;;;19.17;76.26
22580;BME280;11456;47.030;15.396;2022-09-09T08:30:12;97530.75;;;19.95;73.57
22580;BME280;11456;47.030;15.396;2022-09-09T08:32:39;97537.78;;;19.58;72.14
22580;BME280;11456;47.030;15.396;2022-09-09T08:35:11;97546.56;;;19.14;78.05
22580;BME280;11456;47.030;15.396;2022-09-09T08:37:38;97549.56;;;19.46;76.22
22580;BME280;11456;47.030;15.396;2022-09-09T08:40:05;97554.56;;;19.36;75.64
22580;BME280;11456;47.030;15.396;2022-09-09T08:42:39;97552.88;;;19.35;75.71
22580;BME280;11456;47.030;15.396;2022-09-09T08:52:55;97557.09;;;19.31;76.13
22580;BME280;11456;47.030;15.396;2022-09-09T08:58:13;97556.28;;;19.56;75.50
22580;BME280;11456;47.030;15.396;2022-09-09T09:03:32;97551.38;;;19.78;74.95
22580;BME280;11456;47.030;15.396;2022-09-09T09:08:39;97554.69;;;20.07;72.30
22580;BME280;11456;47.030;15.396;2022-09-09T09:11:09;97545.69;;;19.86;72.86
22580;BME280;11456;47.030;15.396;2022-09-09T09:13:47;97552.28;;;20.43;70.33
22580;BME280;11456;47.030;15.396;2022-09-09T09:18:47;97541.78;;;20.40;72.64
22580;BME280;11456;47.030;15.396;2022-09-09T09:21:16;97536.97;;;20.29;72.77
22580;BME280;11456;47.030;15.396;2022-09-09T09:26:23;97534.56;;;20.52;71.39
22580;BME280;11456;47.030;15.396;2022-09-09T09:28:50;97534.25;;;21.61;70.13
22580;BME280;11456;47.030;15.396;2022-09-09T09:31:19;97541.22;;;22.55;66.28
22580;BME280;11456;47.030;15.396;2022-09-09T09:33:48;97529.28;;;22.97;60.68
22580;BME280;11456;47.030;15.396;2022-09-09T09:36:18;97527.38;;;21.95;62.20
22580;BME280;11456;47.030;15.396;2022-09-09T09:38:57;97527.53;;;21.32;66.34
22580;BME280;11456;47.030;15.396;2022-09-09T09:41:45;97524.25;;;21.48;66.10
22580;BME280;11456;47.030;15.396;2022-09-09T09:44:21;97531.78;;;21.96;64.23
22580;BME280;11456;47.030;15.396;2022-09-09T09:46:48;97533.56;;;21.66;63.24
22580;BME280;11456;47.030;15.396;2022-09-09T09:49:15;97531.09;;;21.82;62.18
22580;BME280;11456;47.030;15.396;2022-09-09T09:51:42;97534.56;;;21.46;62.52
22580;BME280;11456;47.030;15.396;2022-09-09T09:54:14;97525.56;;;22.07;62.80
22580;BME280;11456;47.030;15.396;2022-09-09T09:56:46;97524.00;;;22.48;60.23
22580;BME280;11456;47.030;15.396;2022-09-09T10:02:17;97529.31;;;22.61;60.14
22580;BME280;11456;47.030;15.396;2022-09-09T10:04:48;97523.09;;;22.54;60.25
22580;BME280;11456;47.030;15.396;2022-09-09T10:07:19;97517.28;;;23.33;57.84
22580;BME280;11456;47.030;15.396;2022-09-09T10:09:56;97516.41;;;23.09;57.12
22580;BME280;11456;47.030;15.396;2022-09-09T10:15:07;97522.88;;;21.82;59.77
22580;BME280;11456;47.030;15.396;2022-09-09T10:20:46;97517.94;;;22.09;57.15
22580;BME280;11456;47.030;15.396;2022-09-09T10:26:08;97504.69;;;23.55;54.85
22580;BME280;11456;47.030;15.396;2022-09-09T10:28:46;97503.94;;;24.87;51.73
22580;BME280;11456;47.030;15.396;2022-09-09T10:34:41;97502.38;;;24.62;51.37
22580;BME280;11456;47.030;15.396;2022-09-09T10:36:58;97501.78;;;24.89;53.43
22580;BME280;11456;47.030;15.396;2022-09-09T10:39:35;97496.38;;;23.21;55.37
22580;BME280;11456;47.030;15.396;2022-09-09T10:42:09;97492.66;;;22.55;57.16
22580;BME280;11456;47.030;15.396;2022-09-09T10:55:16;97485.84;;;23.17;56.03
22580;BME280;11456;47.030;15.396;2022-09-09T11:02:41;97468.78;;;22.74;56.38
22580;BME280;11456;47.030;15.396;2022-09-09T11:05:20;97477.53;;;21.62;58.04
22580;BME280;11456;47.030;15.396;2022-09-09T11:07:49;97481.03;;;21.69;58.52
22580;BME280;11456;47.030;15.396;2022-09-09T11:10:29;97476.56;;;22.29;60.54
22580;BME280;11456;47.030;15.396;2022-09-09T11:13:02;97474.94;;;22.21;61.24
22580;BME280;11456;47.030;15.396;2022-09-09T11:15:39;97471.63;;;22.19;61.42
22580;BME280;11456;47.030;15.396;2022-09-09T11:18:10;97474.88;;;22.28;60.94
22580;BME280;11456;47.030;15.396;2022-09-09T11:20:37;97478.63;;;22.33;61.44
22580;BME280;11456;47.030;15.396;2022-09-09T11:23:07;97468.00;;;22.37;59.76
22580;BME280;11456;47.030;15.396;2022-09-09T11:25:36;97463.94;;;22.58;59.23
22580;BME280;11456;47.030;15.396;2022-09-09T11:30:36;97450.06;;;22.53;60.58
22580;BME280;11456;47.030;15.396;2022-09-09T11:35:59;97449.38;;;22.09;57.71
22580;BME280;11456;47.030;15.396;2022-09-09T11:38:46;97440.53;;;22.85;58.22
22580;BME280;11456;47.030;15.396;2022-09-09T11:41:17;97437.00;;;23.43;54.19
22580;BME280;11456;47.030;15.396;2022-09-09T11:43:53;97437.59;;;23.10;57.56
22580;BME280;11456;47.030;15.396;2022-09-09T11:46:20;97443.09;;;23.45;54.31
22580;BME280;11456;47.030;15.396;2022-09-09T11:48:59;97432.25;;;23.50;55.20
22580;BME280;11456;47.030;15.396;2022-09-09T11:51:27;97436.13;;;22.84;53.84
22580;BME280;11456;47.030;15.396;2022-09-09T11:53:58;97441.97;;;22.58;51.79
22580;BME280;11456;47.030;15.396;2022-09-09T11:56:43;97434.16;;;22.13;53.79
22580;BME280;11456;47.030;15.396;2022-09-09T12:01:49;97421.91;;;22.87;53.84
22580;BME280;11456;47.030;15.396;2022-09-09T12:04:17;97416.44;;;23.45;53.29
22580;BME280;11456;47.030;15.396;2022-09-09T12:07:00;97416.78;;;23.02;51.40
22580;BME280;11456;47.030;15.396;2022-09-09T12:12:27;97399.59;;;23.42;52.17
22580;BME280;11456;47.030;15.396;2022-09-09T12:14:55;97394.69;;;23.44;50.03
22580;BME280;11456;47.030;15.396;2022-09-09T12:17:23;97399.00;;;23.40;53.84
22580;BME280;11456;47.030;15.396;2022-09-09T12:20:06;97398.91;;;22.28;51.75
22580;BME280;11456;47.030;15.396;2022-09-09T12:23:23;97401.34;;;22.78;52.13
22580;BME280;11456;47.030;15.396;2022-09-09T12:25:26;97408.94;;;22.34;54.34
22580;BME280;11456;47.030;15.396;2022-09-09T12:31:17;97403.91;;;22.91;49.72
22580;BME280;11456;47.030;15.396;2022-09-09T12:33:22;97395.47;;;22.33;52.82
22580;BME280;11456;47.030;15.396;2022-09-09T12:35:56;97393.31;;;22.05;51.93
22580;BME280;11456;47.030;15.396;2022-09-09T12:38:27;97387.66;;;22.18;54.81
22580;BME280;11456;47.030;15.396;2022-09-09T12:40:57;97379.91;;;22.57;52.07
22580;BME280;11456;47.030;15.396;2022-09-09T12:43:25;97377.16;;;22.57;54.11
22580;BME280;11456;47.030;15.396;2022-09-09T12:45:53;97368.19;;;22.91;55.38
22580;BME280;11456;47.030;15.396;2022-09-09T12:48:57;97364.72;;;22.84;54.56
22580;BME280;11456;47.030;15.396;2022-09-09T12:51:26;97367.75;;;22.23;55.50
22580;BME280;11456;47.030;15.396;2022-09-09T12:53:54;97374.78;;;22.60;55.88
22580;BME280;11456;47.030;15.396;2022-09-09T12:56:22;97366.78;;;22.59;56.33
22580;BME280;11456;47.030;15.396;2022-09-09T12:58:51;97369.78;;;22.57;58.34
22580;BME280;11456;47.030;15.396;2022-09-09T13:01:26;97360.88;;;22.32;59.34
22580;BME280;11456;47.030;15.396;2022-09-09T13:03:53;97363.56;;;22.62;57.52
22580;BME280;11456;47.030;15.396;2022-09-09T13:06:21;97359.00;;;22.44;57.47
22580;BME280;11456;47.030;15.396;2022-09-09T13:08:55;97361.41;;;22.22;58.25
22580;BME280;11456;47.030;15.396;2022-09-09T13:11:23;97363.03;;;22.83;56.09
22580;BME280;11456;47.030;15.396;2022-09-09T13:13:52;97367.66;;;22.29;58.15
22580;BME280;11456;47.030;15.396;2022-09-09T13:16:22;97353.84;;;22.48;57.84
22580;BME280;11456;47.030;15.396;2022-09-09T13:18:49;97346.72;;;22.17;59.53
22580;BME280;11456;47.030;15.396;2022-09-09T13:21:16;97353.56;;;22.26;59.33
22580;BME280;11456;47.030;15.396;2022-09-09T13:23:47;97335.56;;;22.30;60.56
22580;BME280;11456;47.030;15.396;2022-09-09T13:28:40;97343.88;;;22.65;57.48
22580;BME280;11456;47.030;15.396;2022-09-09T13:31:19;97339.44;;;22.11;60.13
22580;BME280;11456;47.030;15.396;2022-09-09T13:33:46;97334.19;;;22.09;59.44
22580;BME280;11456;47.030;15.396;2022-09-09T13:36:12;97340.97;;;22.48;57.86
22580;BME280;11456;47.030;15.396;2022-09-09T13:38:52;97334.28;;;22.32;56.98
22580;BME280;11456;47.030;15.396;2022-09-09T13:41:19;97328.56;;;22.04;58.26
22580;BME280;11456;47.030;15.396;2022-09-09T13:43:47;97334.38;;;21.96;60.00
22580;BME280;11456;47.030;15.396;2022-09-09T13:54:05;97332.44;;;21.30;64.97
22580;BME280;11456;47.030;15.396;2022-09-09T13:56:36;97331.09;;;21.14;67.74
22580;BME280;11456;47.030;15.396;2022-09-09T13:59:04;97323.41;;;21.05;68.30
22580;BME280;11456;47.030;15.396;2022-09-09T14:01:32;97324.78;;;21.14;69.02
22580;BME280;11456;47.030;15.396;2022-09-09T14:04:01;97330.06;;;20.72;72.12
22580;BME280;11456;47.030;15.396;2022-09-09T14:06:27;97328.22;;;20.66;72.98
22580;BME280;11456;47.030;15.396;2022-09-09T14:08:56;97323.91;;;20.52;74.16
22580;BME280;11456;47.030;15.396;2022-09-09T14:11:22;97320.75;;;20.49;76.21
22580;BME280;11456;47.030;15.396;2022-09-09T14:13:48;97325.09;;;20.31;77.97
22580;BME280;11456;47.030;15.396;2022-09-09T14:16:18;97327.97;;;20.43;76.83
22580;BME280;11456;47.030;15.396;2022-09-09T14:18:45;97319.66;;;20.56;78.58
22580;BME280;11456;47.030;15.396;2022-09-09T14:21:12;97323.63;;;20.35;81.17
22580;BME280;11456;47.030;15.396;2022-09-09T14:23:38;97325.06;;;20.38;81.56
22580;BME280;11456;47.030;15.396;2022-09-09T14:26:05;97326.69;;;20.46;81.73
22580;BME280;11456;47.030;15.396;2022-09-09T14:28:32;97327.50;;;20.53;81.01
22580;BME280;11456;47.030;15.396;2022-09-09T14:31:19;97336.47;;;20.35;83.64
22580;BME280;11456;47.030;15.396;2022-09-09T14:33:47;97339.91;;;20.17;86.13
22580;BME280;11456;47.030;15.396;2022-09-09T14:36:13;97337.31;;;20.29;86.46
22580;BME280;11456;47.030;15.396;2022-09-09T14:38:41;97337.75;;;20.26;85.06
22580;BME280;11456;47.030;15.396;2022-09-09T14:41:12;97346.00;;;20.19;87.62
22580;BME280;11456;47.030;15.396;2022-09-09T14:43:39;97342.13;;;20.02;87.54
22580;BME280;11456;47.030;15.396;2022-09-09T14:46:10;97347.97;;;20.06;87.97
22580;BME280;11456;47.030;15.396;2022-09-09T14:48:37;97345.06;;;20.00;87.89